Flight Track Log - Related Links

Times and Time Zones

All times are in EDT time to prevent confusion due to time zone crossing. See the SAS6 flight status page for this flight to view local times or setup timezone preferences in your user account.

Time Position Orientation Groundspeed Altitude Reporting Facility
EDT Latitude Longitude Course Direction KTS MPH feet Rate Location/Type
Mon 03:49:00 AM 60.0089 18.1279 16° North  Level Estimated
Mon 03:50:00 AM 60.1278 18.1986 17° North  Level Estimated
Mon 03:51:00 AM 60.2467 18.2699 17° North  Level Estimated
Mon 03:52:00 AM 60.3656 18.3417 17° North  Level Estimated
Mon 03:53:00 AM 60.4844 18.4140 17° North  Level Estimated
Mon 03:54:00 AM 60.5904 18.4790 17° North  Level Estimated
Mon 03:55:00 AM 60.6964 18.5444 17° North  Level Estimated
Mon 03:56:00 AM 60.8024 18.6103 17° North  Level Estimated
Mon 03:57:00 AM 60.9083 18.6766 17° North  Level Estimated
Mon 03:58:00 AM 61.0142 18.7434 17° North  Level Estimated
Mon 03:59:00 AM 61.1201 18.8106 17° North  Level Estimated
Mon 04:00:00 AM 61.2260 18.8782 17° North  Level Estimated
Mon 04:01:00 AM 61.3318 18.9464 17° North  Level Estimated
Mon 04:02:00 AM 61.4375 19.0149 17° North  Level Estimated
Mon 04:03:00 AM 61.5433 19.0840 17° North  Level Estimated
Mon 04:04:00 AM 61.6490 19.1535 17° North  Level Estimated
Mon 04:05:00 AM 61.7547 19.2235 17° North  Level Estimated
Mon 04:06:00 AM 61.8603 19.2939 17° North  Level Estimated
Mon 04:07:00 AM 61.9659 19.3649 18° North  Level Estimated
Mon 04:08:00 AM 62.0715 19.4363 18° North  Level Estimated
Mon 04:09:00 AM 62.1770 19.5083 18° North  Level Estimated
Mon 04:10:00 AM 62.2825 19.5807 18° North  Level Estimated
Mon 04:11:00 AM 62.3879 19.6537 18° North  Level Estimated
Mon 04:12:00 AM 62.4933 19.7272 18° North  Level Estimated
Mon 04:13:00 AM 62.5987 19.8012 18° North  Level Estimated
Mon 04:14:00 AM 62.7040 19.8757 18° North  Level Estimated
Mon 04:15:00 AM 62.8093 19.9508 18° North  Level Estimated
Mon 04:16:00 AM 62.9146 20.0264 18° North  Level Estimated
Mon 04:17:00 AM 63.0198 20.1025 18° North  Level Estimated
Mon 04:18:00 AM 63.1250 20.1792 18° North  Level Estimated
Mon 04:19:00 AM 63.2301 20.2564 18° North  Level Estimated
Mon 04:20:00 AM 63.3352 20.3342 18° North  Level Estimated
Mon 04:21:00 AM 63.4402 20.4126 18° North  Level Estimated
Mon 04:22:00 AM 63.5452 20.4916 19° North  Level Estimated
Mon 04:23:00 AM 63.6502 20.5711 19° North  Level Estimated
Mon 04:24:00 AM 63.7551 20.6513 19° North  Level Estimated
Mon 04:25:00 AM 63.8600 20.7320 19° North  Level Estimated
Mon 04:26:00 AM 63.9648 20.8133 19° North  Level Estimated
Mon 04:27:00 AM 64.0695 20.8953 19° North  Level Estimated
Mon 04:28:00 AM 64.1743 20.9778 19° North  Level Estimated
Mon 04:29:00 AM 64.2790 21.0610 19° North  Level Estimated
Mon 04:30:00 AM 64.3836 21.1449 19° North  Level Estimated
Mon 04:31:00 AM 64.4882 21.2293 19° North  Level Estimated
Mon 04:32:00 AM 64.5927 21.3144 19° North  Level Estimated
Mon 04:33:00 AM 64.6972 21.4002 19° North  Level Estimated
Mon 04:34:00 AM 64.8017 21.4867 19° North  Level Estimated
Mon 04:35:00 AM 64.9061 21.5738 19° North  Level Estimated
Mon 04:36:00 AM 65.0104 21.6616 20° North  Level Estimated
Mon 04:37:00 AM 65.1147 21.7500 20° North  Level Estimated
Mon 04:38:00 AM 65.2189 21.8392 20° North  Level Estimated
Mon 04:39:00 AM 65.3231 21.9291 20° North  Level Estimated
Mon 04:40:00 AM 65.4272 22.0197 20° North  Level Estimated
Mon 04:41:00 AM 65.5313 22.1110 20° North  Level Estimated
Mon 04:42:00 AM 65.5438 22.1220 20° North  Level Estimated
Mon 04:43:00 AM 65.5438 22.1220 192° South  Level Estimated
Mon 04:44:00 AM 65.5438 22.1220 192° South  Level Estimated
Mon 04:45:00 AM 65.5438 22.1220 192° South  Level Estimated
Mon 04:46:00 AM 65.5438 22.1220 192° South  Level Estimated
Mon 04:47:00 AM 65.5438 22.1220 192° South  Level Estimated
Mon 04:48:00 AM 65.5438 22.1220 192° South  Level Estimated
Mon 04:49:00 AM 65.5438 22.1220 192° South  Level Estimated
Mon 04:50:00 AM 65.5438 22.1220 192° South  Level Estimated
Mon 04:51:00 AM 65.5438 22.1220 192° South  Level Estimated
Mon 04:52:00 AM 65.5438 22.1220 192° South  Level Estimated
Mon 04:53:00 AM 65.5438 22.1220 192° South  Level Estimated
Mon 04:54:00 AM 65.5438 22.1220 192° South  Level Estimated
Mon 04:55:00 AM 65.5438 22.1220 192° South  Level Estimated

Login

Don't have an account? Register now (free) for customized features, flight alerts, and more!